createdAt,value
2018-08-24T00:04:14.049Z,93.70
2018-08-24T00:09:21.693Z,93.70
2018-08-24T00:14:25.118Z,94.10
2018-08-24T00:19:28.533Z,93.90
2018-08-24T00:24:31.946Z,93.80
2018-08-24T00:29:35.349Z,94.00
2018-08-24T00:34:38.810Z,93.80
2018-08-24T00:39:43.074Z,93.80
2018-08-24T00:44:46.497Z,93.90
2018-08-24T00:49:50.094Z,94.00
2018-08-24T00:54:53.516Z,94.00
2018-08-24T00:59:56.957Z,94.10
2018-08-24T01:05:00.425Z,93.90
2018-08-24T01:10:09.266Z,94.00
2018-08-24T01:15:14.993Z,93.90
2018-08-24T01:20:22.748Z,93.90
2018-08-24T01:25:26.169Z,94.00
2018-08-24T01:30:29.585Z,94.10
2018-08-24T01:35:33.006Z,94.10
2018-08-24T01:40:36.437Z,94.00
2018-08-24T01:45:39.878Z,94.00
2018-08-24T01:50:43.300Z,94.10
2018-08-24T01:55:46.808Z,94.00
2018-08-24T02:00:50.266Z,93.80
2018-08-24T02:05:58.140Z,93.70
2018-08-24T02:11:01.565Z,93.80
2018-08-24T02:16:04.981Z,93.70
2018-08-24T02:21:13.870Z,93.80
2018-08-24T02:26:17.282Z,93.80
2018-08-24T02:31:20.843Z,94.00
2018-08-24T02:36:24.189Z,93.40
2018-08-24T02:41:27.752Z,93.50
2018-08-24T02:46:31.200Z,93.30
2018-08-24T02:51:34.725Z,93.00
2018-08-24T02:56:38.182Z,93.20
2018-08-24T03:01:41.588Z,92.90
2018-08-24T03:06:45.058Z,92.80
2018-08-24T03:11:48.484Z,93.00
2018-08-24T03:16:57.194Z,92.70
2018-08-24T03:22:00.617Z,92.60
2018-08-24T03:27:04.037Z,92.60
2018-08-24T03:32:07.598Z,92.50
2018-08-24T03:37:11.090Z,92.40
2018-08-24T03:42:14.510Z,92.30
2018-08-24T03:47:17.955Z,92.60
2018-08-24T03:52:21.431Z,92.30
2018-08-24T03:57:24.868Z,92.30
2018-08-24T04:02:28.330Z,92.40
2018-08-24T04:07:31.782Z,92.30
2018-08-24T04:12:35.248Z,92.10
2018-08-24T04:17:40.260Z,91.90
2018-08-24T04:22:43.719Z,92.40
2018-08-24T04:27:47.132Z,92.50
2018-08-24T04:32:50.569Z,93.00
2018-08-24T04:37:53.986Z,93.20
2018-08-24T04:42:57.456Z,93.20
2018-08-24T04:48:00.875Z,93.60
2018-08-24T04:53:04.343Z,93.70
2018-08-24T04:58:07.802Z,93.70
2018-08-24T05:03:11.194Z,93.70
2018-08-24T05:08:14.611Z,93.60
2018-08-24T05:13:18.109Z,93.60
2018-08-24T05:18:21.530Z,93.50
2018-08-24T05:23:25.325Z,93.70
2018-08-24T05:28:28.747Z,94.20
2018-08-24T05:33:32.165Z,94.40
2018-08-24T05:38:35.607Z,94.00
2018-08-24T05:43:39.043Z,93.20
2018-08-24T05:48:42.519Z,93.40
2018-08-24T05:53:45.979Z,93.20
2018-08-24T05:58:49.441Z,93.90
2018-08-24T06:03:52.925Z,94.20
2018-08-24T06:09:01.827Z,94.00
2018-08-24T06:14:05.254Z,93.70
2018-08-24T06:19:09.610Z,93.00
2018-08-24T06:24:13.030Z,92.20
2018-08-24T06:29:16.526Z,91.80
2018-08-24T06:34:19.974Z,91.80
2018-08-24T06:39:23.413Z,91.60
2018-08-24T06:44:26.929Z,91.70
2018-08-24T06:49:30.393Z,91.10
2018-08-24T06:54:33.813Z,89.80
2018-08-24T06:59:37.277Z,87.60
2018-08-24T07:04:40.737Z,83.60
2018-08-24T07:09:44.183Z,81.10
2018-08-24T07:14:47.625Z,80.70
2018-08-24T07:19:51.101Z,80.60
2018-08-24T07:24:54.520Z,78.10
2018-08-24T07:29:57.972Z,71.70
2018-08-24T07:35:01.432Z,67.80
2018-08-24T07:40:04.900Z,64.80
2018-08-24T07:45:08.372Z,66.60
2018-08-24T07:50:11.891Z,64.90
2018-08-24T07:55:15.325Z,64.40
2018-08-24T08:00:18.770Z,65.80
2018-08-24T08:05:22.260Z,68.50
2018-08-24T08:10:29.932Z,70.40
2018-08-24T08:15:33.373Z,72.40
2018-08-24T08:20:36.862Z,72.90
2018-08-24T08:25:40.268Z,73.30
2018-08-24T08:30:43.754Z,73.10
2018-08-24T08:35:47.214Z,69.40
2018-08-24T08:40:50.633Z,67.70
2018-08-24T08:45:54.101Z,67.10
2018-08-24T08:50:57.529Z,66.30
2018-08-24T08:56:00.964Z,63.90
2018-08-24T09:01:04.585Z,63.60
2018-08-24T09:06:08.105Z,62.90
2018-08-24T09:11:11.536Z,64.10
2018-08-24T09:16:14.985Z,64.50
2018-08-24T09:21:23.606Z,66.60
2018-08-24T09:26:32.269Z,66.80
2018-08-24T09:31:37.785Z,66.70
2018-08-24T09:36:42.188Z,68.60
2018-08-24T09:41:45.637Z,69.30
2018-08-24T09:46:54.497Z,67.90
2018-08-24T09:51:57.944Z,68.60
2018-08-24T09:57:01.485Z,68.20
2018-08-24T10:02:10.491Z,68.10
2018-08-24T10:07:19.363Z,67.30
2018-08-24T10:12:22.804Z,64.80
2018-08-24T10:17:29.397Z,60.50
2018-08-24T10:22:33.399Z,59.50
2018-08-24T10:27:36.843Z,58.50
2018-08-24T10:32:40.277Z,56.20
2018-08-24T10:37:43.742Z,56.10
2018-08-24T10:42:47.192Z,56.80
2018-08-24T10:47:50.675Z,57.30
2018-08-24T10:52:54.073Z,58.20
2018-08-24T10:57:57.679Z,58.60
2018-08-24T11:03:01.283Z,59.40
2018-08-24T11:08:04.822Z,59.60
2018-08-24T11:13:08.286Z,59.90
2018-08-24T11:18:12.084Z,59.40
2018-08-24T11:23:15.570Z,58.10
2018-08-24T11:28:19.028Z,56.30
2018-08-24T11:33:22.476Z,56.70
2018-08-24T11:38:25.913Z,56.60
2018-08-24T11:43:29.428Z,56.70
2018-08-24T11:48:32.860Z,57.20
2018-08-24T11:53:36.344Z,58.30
2018-08-24T11:58:39.810Z,59.90
2018-08-24T12:03:43.272Z,62.90
2018-08-24T12:08:46.753Z,68.50
2018-08-24T12:13:50.271Z,73.10
2018-08-24T12:18:53.710Z,75.50
2018-08-24T12:23:57.211Z,78.80
2018-08-24T12:29:00.652Z,83.20
2018-08-24T12:34:04.190Z,84.80
2018-08-24T12:39:09.623Z,87.50
2018-08-24T12:44:13.109Z,89.00
2018-08-24T12:49:16.625Z,89.70
2018-08-24T12:54:20.897Z,89.30
2018-08-24T12:59:24.433Z,87.90
2018-08-24T13:04:27.976Z,84.60
2018-08-24T13:09:31.478Z,85.20
2018-08-24T13:14:34.953Z,85.90
2018-08-24T13:19:38.427Z,84.50
2018-08-24T13:24:41.982Z,84.60
2018-08-24T13:29:45.474Z,87.30
2018-08-24T13:34:48.989Z,88.00
2018-08-24T13:39:52.467Z,86.90
2018-08-24T13:44:56.051Z,89.20
2018-08-24T13:49:59.558Z,89.30
2018-08-24T13:55:03.071Z,90.10
2018-08-24T14:00:07.141Z,89.30
2018-08-24T14:05:10.914Z,90.60
2018-08-24T14:10:14.719Z,89.20
2018-08-24T14:15:18.213Z,88.90
2018-08-24T14:20:23.031Z,90.10
2018-08-24T14:25:26.569Z,87.30
2018-08-24T14:30:30.090Z,86.90
2018-08-24T14:35:33.622Z,85.30
2018-08-24T14:40:37.179Z,82.30
2018-08-24T14:45:40.721Z,81.50
2018-08-24T14:50:44.203Z,79.80
2018-08-24T14:55:47.719Z,82.00
2018-08-24T15:00:51.468Z,79.40
2018-08-24T15:05:55.098Z,80.10
2018-08-24T15:10:58.577Z,79.00
2018-08-24T15:16:02.166Z,76.40
2018-08-24T15:21:05.790Z,75.90
2018-08-24T15:26:09.278Z,74.90
2018-08-24T15:31:12.889Z,76.80
2018-08-24T15:36:16.469Z,75.30
2018-08-24T15:41:20.333Z,75.20
2018-08-24T15:46:23.990Z,74.10
2018-08-24T15:51:27.413Z,72.40
2018-08-24T15:56:30.876Z,69.00
2018-08-24T16:01:34.367Z,68.00
2018-08-24T16:06:37.911Z,70.10
2018-08-24T16:11:41.402Z,70.40
2018-08-24T16:16:44.923Z,67.70
2018-08-24T16:21:48.552Z,67.70
2018-08-24T16:26:52.080Z,65.30
2018-08-24T16:31:55.568Z,64.90
2018-08-24T16:36:59.217Z,65.30
2018-08-24T16:42:02.641Z,66.10
2018-08-24T16:47:06.157Z,66.70
2018-08-24T16:52:09.678Z,65.30
2018-08-24T16:57:13.155Z,67.60
2018-08-24T17:02:16.689Z,68.80
2018-08-24T17:07:20.219Z,69.30
2018-08-24T17:12:23.801Z,68.20
2018-08-24T17:17:27.213Z,69.00
2018-08-24T17:22:30.737Z,70.20
2018-08-24T17:27:34.243Z,70.50
2018-08-24T17:32:37.718Z,68.90
2018-08-24T17:37:41.223Z,70.20
2018-08-24T17:42:44.779Z,72.30
2018-08-24T17:47:48.309Z,73.90
2018-08-24T17:52:51.787Z,74.10
2018-08-24T17:57:55.226Z,73.50
2018-08-24T18:02:58.724Z,74.50
2018-08-24T18:08:02.236Z,73.70
2018-08-24T18:13:05.802Z,73.90
2018-08-24T18:18:09.305Z,74.70
2018-08-24T18:23:12.769Z,75.50
2018-08-24T18:28:16.276Z,76.30
2018-08-24T18:33:19.797Z,77.40
2018-08-24T18:38:23.288Z,78.40
2018-08-24T18:43:26.884Z,78.90
2018-08-24T18:48:30.417Z,78.70
2018-08-24T18:53:36.816Z,79.80
2018-08-24T18:58:40.265Z,80.00
2018-08-24T19:03:43.758Z,80.00
2018-08-24T19:08:47.197Z,80.50
2018-08-24T19:13:50.713Z,80.70
2018-08-24T19:18:59.497Z,80.60
2018-08-24T19:24:03.059Z,81.20
2018-08-24T19:29:11.945Z,81.50
2018-08-24T19:34:15.489Z,81.50
2018-08-24T19:39:18.998Z,81.70
2018-08-24T19:44:23.801Z,83.20
2018-08-24T19:49:27.824Z,82.90
2018-08-24T19:54:31.325Z,83.10
2018-08-24T19:59:34.844Z,83.30
2018-08-24T20:04:38.391Z,84.00
2018-08-24T20:09:47.227Z,83.80
2018-08-24T20:14:56.141Z,84.00
2018-08-24T20:20:00.922Z,84.10
2018-08-24T20:25:04.466Z,84.40
2018-08-24T20:30:08.006Z,84.60
2018-08-24T20:35:11.498Z,84.70
2018-08-24T20:40:15.275Z,84.40
2018-08-24T20:45:18.753Z,85.10
2018-08-24T20:50:22.251Z,85.00
2018-08-24T20:55:25.904Z,85.20
2018-08-24T21:00:29.369Z,84.90
2018-08-24T21:05:32.957Z,85.20
2018-08-24T21:10:36.401Z,85.60
2018-08-24T21:15:39.827Z,86.10
2018-08-24T21:20:43.347Z,87.10
2018-08-24T21:25:46.885Z,87.80
2018-08-24T21:30:50.435Z,88.00
2018-08-24T21:35:53.892Z,87.90
2018-08-24T21:40:57.386Z,88.80
2018-08-24T21:46:00.940Z,88.70
2018-08-24T21:51:04.484Z,88.70
2018-08-24T21:56:08.502Z,89.40
2018-08-24T22:01:12.049Z,89.90
2018-08-24T22:06:15.572Z,89.40
2018-08-24T22:11:19.346Z,88.90
2018-08-24T22:16:22.876Z,88.50
2018-08-24T22:21:26.368Z,89.20
2018-08-24T22:26:29.945Z,89.70
2018-08-24T22:31:33.478Z,88.60
2018-08-24T22:36:37.007Z,89.50
2018-08-24T22:41:40.498Z,90.00
2018-08-24T22:46:43.974Z,89.90
2018-08-24T22:51:47.432Z,89.90
2018-08-24T22:56:50.978Z,90.20
2018-08-24T23:01:54.397Z,91.50
2018-08-24T23:06:57.872Z,91.60
2018-08-24T23:12:04.309Z,90.80
2018-08-24T23:17:07.834Z,91.50
2018-08-24T23:22:11.434Z,91.60
2018-08-24T23:27:14.893Z,92.00
2018-08-24T23:32:18.357Z,92.00
2018-08-24T23:37:21.816Z,92.20
2018-08-24T23:42:25.239Z,92.10
2018-08-24T23:47:28.672Z,92.10
2018-08-24T23:52:32.129Z,92.20
2018-08-24T23:57:35.558Z,92.50
